To NAV CANADA Home Page Login to a new session Search on AWWS site Feedback and Comments Disclaimer Vers la page française équivalente Tips FAQ What's new on the site To the Forecasts and Observations / NOTAM section To "File a Flight Plan" website Publications and other links Update of the User's profile FIC Telephone Numbers My Weather Data Folder Route Weather Data Regional Weather Data Local Weather Data To the Forecasts and Observations / NOTAM section
Request Generated 01/21/2017 at 02:03:08 UTC . Weather information available at that time is displayed.

METAR/TAF

EDMONTON INTL/AB    

METAR CYEG 210200Z 12005KT 15SM FEW220 M05/M08 A2932 RMK CI1 CI TR
SLP969=
METAR CYEG 210100Z 13007KT 15SM FEW240 M02/M07 A2932 RMK CI1 CI TR
SLP966=
METAR CYEG 210000Z 10006KT 15SM FEW240 M02/M07 A2931 RMK CI1 SLP964=

TAF CYEG 202348Z 2100/2124 11005KT P6SM FEW240
FM211100 09005KT 4SM BR FEW240 TEMPO 2111/2115 1/2SM FZFG VV004
FM211500 32005KT 1/4SM FZFG VV002 TEMPO 2115/2117 3/4SM BR VV006
FM211700 31010KT 3SM -FZDZ BR OVC005 TEMPO 2117/2119 6SM -FZDZ BR
OVC008
FM211900 31012KT 6SM -FZDZ BR OVC008 TEMPO 2119/2122 P6SM NSW
OVC012
FM212200 33015KT P6SM OVC015 TEMPO 2123/2124 SCT015 OVC025
RMK NXT FCST BY 210300Z=
Your time UTC time
Weather data provided by Environment Canada and NAV CANADA